Weather at Kampong Chhnang Airport

Public forecast

Using degrees Celsius for public forecast. Weather courtesy of forecast.io.

Closest aviation weather report (METAR) to Kampong Chhnang Airport

Closest report is Phnom Penh International Airport, 45.6 nm (84.4 km) SSE.

2024/07/13 08:30 (retrieved 14 minutes ago)

VDPP 130830Z 24011KT 220V290 9999 SCT015 FEW017CB SCT040 33/22 Q1002 RMK CB

Closest aviation forecast (TAF) to Kampong Chhnang Airport

Closest forecast is Phnom Penh International Airport, 45.6 nm (84.4 km) SSE.

2024/07/13 06:36 (retrieved 2 hours ago)

TAF TAF VDPP 130500Z 1306/1324 25010KT 9999 SCT017 SCT040 TEMPO 1306/1311 27015G27KT 5000 TSRA SCT015 FEW017CB BKN040